createdAt,value
2022-08-26T00:00:35.770Z,59869.88
2022-08-26T00:01:39.795Z,59911.03
2022-08-26T00:02:42.650Z,59922.07
2022-08-26T00:03:45.535Z,59912.04
2022-08-26T00:04:48.604Z,59928.10
2022-08-26T00:05:51.681Z,59907.02
2022-08-26T00:06:54.656Z,59903.00
2022-08-26T00:07:58.865Z,59909.02
2022-08-26T00:09:02.041Z,59915.05
2022-08-26T00:10:05.128Z,59940.14
2022-08-26T00:11:08.299Z,59937.13
2022-08-26T00:12:12.364Z,59891.96
2022-08-26T00:13:15.488Z,59861.85
2022-08-26T00:14:19.799Z,59911.03
2022-08-26T00:15:22.972Z,59932.11
2022-08-26T00:16:26.888Z,59941.15
2022-08-26T00:17:29.957Z,59951.18
2022-08-26T00:18:33.215Z,59967.24
2022-08-26T00:19:37.148Z,59916.05
2022-08-26T00:20:40.536Z,59941.15
2022-08-26T00:21:44.953Z,59965.24
2022-08-26T00:22:48.016Z,59973.27
2022-08-26T00:23:51.813Z,59966.24
2022-08-26T00:24:55.095Z,59970.25
2022-08-26T00:25:58.489Z,60009.41
2022-08-26T00:27:01.666Z,60006.39
2022-08-26T00:28:04.843Z,60031.49
2022-08-26T00:29:09.554Z,59983.30
2022-08-26T00:30:13.151Z,60020.45
2022-08-26T00:31:16.668Z,59982.30
2022-08-26T00:32:19.518Z,59991.34
2022-08-26T00:33:22.599Z,60021.45
2022-08-26T00:34:25.777Z,60060.60
2022-08-26T00:35:28.959Z,60046.55
2022-08-26T00:36:32.858Z,60046.55
2022-08-26T00:37:35.838Z,60035.50
2022-08-26T00:38:38.712Z,59996.36
2022-08-26T00:39:42.193Z,60014.42
2022-08-26T00:40:45.383Z,59954.20
2022-08-26T00:41:48.558Z,59897.98
2022-08-26T00:42:51.334Z,59933.12
2022-08-26T00:43:54.412Z,59881.92
2022-08-26T00:44:57.082Z,59923.08
2022-08-26T00:46:00.452Z,59925.09
2022-08-26T00:47:05.289Z,59910.03
2022-08-26T00:48:08.366Z,59902.00
2022-08-26T00:49:12.493Z,59915.05
2022-08-26T00:50:15.662Z,59959.21
2022-08-26T00:51:18.530Z,59948.17
2022-08-26T00:52:21.714Z,59941.15
2022-08-26T00:53:25.940Z,59945.16
2022-08-26T00:54:30.129Z,59962.23
2022-08-26T00:55:37.813Z,59979.29
2022-08-26T00:56:37.306Z,59944.16
2022-08-26T00:57:40.299Z,59984.31
2022-08-26T00:58:43.157Z,59973.27
2022-08-26T00:59:46.135Z,59980.29
2022-08-26T01:00:48.971Z,59972.27
2022-08-26T01:01:51.813Z,59984.31
2022-08-26T01:02:55.076Z,59956.20
2022-08-26T01:03:58.354Z,59991.34
2022-08-26T01:05:01.338Z,59976.28
2022-08-26T01:06:05.837Z,59988.32
2022-08-26T01:07:10.454Z,60033.50
2022-08-26T01:08:13.845Z,60018.44
2022-08-26T01:09:17.123Z,60045.54
2022-08-26T01:10:20.414Z,60036.51
2022-08-26T01:11:23.701Z,60064.61
2022-08-26T01:12:26.788Z,60138.90
2022-08-26T01:13:29.651Z,60082.68
2022-08-26T01:14:32.632Z,60074.65
2022-08-26T01:15:35.504Z,60065.62
2022-08-26T01:16:38.600Z,60054.57
2022-08-26T01:17:41.453Z,60062.61
2022-08-26T01:18:46.172Z,60069.63
2022-08-26T01:19:49.358Z,60095.73
2022-08-26T01:20:52.328Z,60038.52
2022-08-26T01:21:56.639Z,60069.63
2022-08-26T01:23:01.483Z,60044.54
2022-08-26T01:24:04.653Z,60050.56
2022-08-26T01:25:07.925Z,60043.54
2022-08-26T01:26:19.636Z,60010.41
2022-08-26T01:27:15.630Z,59994.35
2022-08-26T01:28:18.697Z,59959.21
2022-08-26T01:29:21.784Z,59977.28
2022-08-26T01:30:24.860Z,59968.25
2022-08-26T01:31:28.016Z,59992.34
2022-08-26T01:32:31.117Z,59981.30
2022-08-26T01:33:42.404Z,59971.26
2022-08-26T01:34:39.223Z,59924.08
2022-08-26T01:35:42.513Z,59936.12
2022-08-26T01:36:49.305Z,59950.18
2022-08-26T01:37:49.894Z,59951.18
2022-08-26T01:38:52.776Z,59932.11
2022-08-26T01:39:56.523Z,59941.15
2022-08-26T01:41:00.464Z,59918.06
2022-08-26T01:42:04.263Z,59930.11
2022-08-26T01:43:09.416Z,59877.91
2022-08-26T01:44:12.466Z,59938.13
2022-08-26T01:45:15.654Z,59933.12
2022-08-26T01:46:18.828Z,59939.14
2022-08-26T01:47:22.317Z,59937.13
2022-08-26T01:48:25.606Z,59970.25
2022-08-26T01:49:28.790Z,60016.43
2022-08-26T01:50:33.508Z,59965.24
2022-08-26T01:51:36.491Z,59964.23
2022-08-26T01:52:39.870Z,59929.10
2022-08-26T01:53:43.053Z,59962.23
2022-08-26T01:54:50.590Z,60015.43
2022-08-26T01:55:51.869Z,60052.57
2022-08-26T01:56:54.952Z,60058.59
2022-08-26T01:57:58.233Z,60082.68
2022-08-26T01:59:01.342Z,60081.68
2022-08-26T02:00:04.394Z,60132.87
2022-08-26T02:01:07.953Z,60111.79
2022-08-26T02:02:12.499Z,60103.76
2022-08-26T02:03:15.167Z,60112.80
2022-08-26T02:04:18.201Z,60115.81
2022-08-26T02:05:21.015Z,60097.74
2022-08-26T02:06:23.893Z,60071.64
2022-08-26T02:07:27.586Z,60060.60
2022-08-26T02:08:30.360Z,60039.52
2022-08-26T02:09:33.233Z,60069.63
2022-08-26T02:10:37.543Z,60056.58
2022-08-26T02:11:42.059Z,60048.55
2022-08-26T02:12:44.832Z,60031.49
2022-08-26T02:13:48.139Z,60072.64
2022-08-26T02:14:51.341Z,60020.45
2022-08-26T02:15:54.297Z,59956.20
2022-08-26T02:16:57.043Z,59966.24
2022-08-26T02:18:00.330Z,59938.13
2022-08-26T02:19:03.004Z,59954.20
2022-08-26T02:20:06.287Z,59883.93
2022-08-26T02:21:10.688Z,59782.55
2022-08-26T02:22:13.464Z,59777.53
2022-08-26T02:23:16.237Z,59684.18
2022-08-26T02:24:18.907Z,59677.16
2022-08-26T02:25:21.778Z,59667.12
2022-08-26T02:26:27.023Z,59592.84
2022-08-26T02:27:30.330Z,59577.79
2022-08-26T02:28:34.500Z,59620.95
2022-08-26T02:29:37.370Z,59698.23
2022-08-26T02:30:40.758Z,59635.00
2022-08-26T02:31:43.615Z,59592.84
2022-08-26T02:32:46.823Z,59559.72
2022-08-26T02:33:51.127Z,59524.59
2022-08-26T02:34:53.794Z,59579.80
2022-08-26T02:35:56.668Z,59570.76
2022-08-26T02:36:59.544Z,59578.79
2022-08-26T02:38:02.418Z,59594.85
2022-08-26T02:39:06.833Z,59575.78
2022-08-26T02:40:09.889Z,59599.87
2022-08-26T02:41:12.987Z,59581.80
2022-08-26T02:42:16.887Z,59719.31
2022-08-26T02:43:19.763Z,59825.71
2022-08-26T02:44:24.171Z,59912.04
2022-08-26T02:45:28.599Z,60005.39
2022-08-26T02:46:32.239Z,60055.58
2022-08-26T02:47:35.045Z,60046.55
2022-08-26T02:48:37.919Z,60082.68
2022-08-26T02:49:40.694Z,60092.72
2022-08-26T02:50:45.208Z,60096.74
2022-08-26T02:51:47.985Z,60118.82
2022-08-26T02:52:50.650Z,60116.81
2022-08-26T02:53:53.528Z,60113.80
2022-08-26T02:54:56.407Z,60107.78
2022-08-26T02:55:59.813Z,60122.84
2022-08-26T02:57:02.865Z,60135.89
2022-08-26T02:58:06.150Z,60124.84
2022-08-26T02:59:09.843Z,60131.87
2022-08-26T03:00:12.525Z,60143.92
2022-08-26T03:01:15.325Z,60172.03
2022-08-26T03:02:19.721Z,60151.95
2022-08-26T03:03:23.569Z,60187.08
2022-08-26T03:04:26.473Z,60192.10
2022-08-26T03:05:29.343Z,60179.05
2022-08-26T03:06:32.218Z,60132.87
2022-08-26T03:07:35.702Z,60171.02
2022-08-26T03:08:38.376Z,60187.08
2022-08-26T03:09:41.051Z,60191.10
2022-08-26T03:12:04.207Z,60207.16
2022-08-26T03:13:07.225Z,60211.18
2022-08-26T03:14:10.364Z,60209.17
2022-08-26T03:15:16.006Z,60239.29
2022-08-26T03:16:19.082Z,60226.23
2022-08-26T03:17:21.961Z,60225.23
2022-08-26T03:18:24.834Z,60232.26
2022-08-26T03:19:27.405Z,60254.34
2022-08-26T03:20:30.382Z,60253.34
2022-08-26T03:21:33.147Z,60247.32
2022-08-26T03:22:36.031Z,60251.33
2022-08-26T03:23:38.899Z,60235.27
2022-08-26T03:24:42.076Z,60188.09
2022-08-26T03:25:46.383Z,60216.20
2022-08-26T03:26:52.360Z,60246.31
2022-08-26T03:27:53.573Z,60215.19
2022-08-26T03:28:57.777Z,60219.21
2022-08-26T03:30:01.315Z,60207.16
2022-08-26T03:31:04.083Z,60175.04
2022-08-26T03:32:06.709Z,60169.02
2022-08-26T03:33:09.743Z,60189.09
2022-08-26T03:34:12.892Z,60160.98
2022-08-26T03:35:15.640Z,60155.96
2022-08-26T03:36:18.517Z,60150.95
2022-08-26T03:37:21.708Z,60162.99
2022-08-26T03:38:24.362Z,60130.87
2022-08-26T03:39:27.148Z,60146.93
2022-08-26T03:40:29.955Z,60142.91
2022-08-26T03:41:32.777Z,60127.86
2022-08-26T03:42:35.665Z,60141.91
2022-08-26T03:43:38.532Z,60113.80
2022-08-26T03:44:42.944Z,60099.75
2022-08-26T03:45:46.432Z,60071.64
2022-08-26T03:46:49.997Z,60058.59
2022-08-26T03:47:52.805Z,59983.30
2022-08-26T03:48:55.871Z,59985.31
2022-08-26T03:49:58.857Z,59985.31
2022-08-26T03:51:01.622Z,59994.35
2022-08-26T03:52:05.943Z,60035.50
2022-08-26T03:53:12.903Z,60075.66
2022-08-26T03:54:13.421Z,60140.91
2022-08-26T03:55:16.298Z,60148.94
2022-08-26T03:56:20.599Z,60206.16
2022-08-26T03:57:23.479Z,60202.14
2022-08-26T03:58:26.357Z,60263.38
2022-08-26T03:59:29.028Z,60315.58
2022-08-26T04:00:31.900Z,60341.68
2022-08-26T04:01:37.374Z,60503.31
2022-08-26T04:02:40.873Z,60869.77
2022-08-26T04:03:44.008Z,60983.22
2022-08-26T04:04:46.775Z,60954.11
2022-08-26T04:05:50.364Z,61025.39
2022-08-26T04:06:53.239Z,61072.59
2022-08-26T04:07:56.222Z,61090.66
2022-08-26T04:08:59.205Z,61128.81
2022-08-26T04:10:01.974Z,61105.72
2022-08-26T04:11:04.740Z,61119.78
2022-08-26T04:12:07.630Z,61135.84
2022-08-26T04:13:10.592Z,61094.67
2022-08-26T04:14:13.698Z,61077.61
2022-08-26T04:15:17.783Z,61028.41
2022-08-26T04:16:20.854Z,60998.28
2022-08-26T04:17:24.933Z,60961.13
2022-08-26T04:18:31.447Z,60840.65
2022-08-26T04:19:32.866Z,60782.41
2022-08-26T04:20:35.634Z,60713.14
2022-08-26T04:21:38.708Z,60655.91
2022-08-26T04:22:41.479Z,60592.66
2022-08-26T04:23:47.597Z,60561.54
2022-08-26T04:24:48.972Z,60604.71
2022-08-26T04:25:52.871Z,60565.55
2022-08-26T04:26:55.540Z,60524.39
2022-08-26T04:27:58.209Z,60528.41
2022-08-26T04:29:01.183Z,60482.23
2022-08-26T04:30:04.060Z,60463.15
2022-08-26T04:31:07.091Z,60405.93
2022-08-26T04:32:10.426Z,60325.62
2022-08-26T04:33:13.500Z,60259.36
2022-08-26T04:34:16.476Z,60188.09
2022-08-26T04:35:21.822Z,60106.78
2022-08-26T04:36:23.770Z,60024.46
2022-08-26T04:37:26.946Z,59928.10
2022-08-26T04:38:30.037Z,59820.69
2022-08-26T04:39:33.010Z,59710.28
2022-08-26T04:40:36.293Z,59669.12
2022-08-26T04:41:39.277Z,59593.85
2022-08-26T04:42:42.759Z,59598.87
2022-08-26T04:43:45.944Z,59579.80
2022-08-26T04:44:48.918Z,59563.73
2022-08-26T04:45:51.685Z,59504.52
2022-08-26T04:46:55.607Z,59461.36
2022-08-26T04:47:59.077Z,59476.42
2022-08-26T04:49:02.266Z,59459.35
2022-08-26T04:50:05.641Z,59477.42
2022-08-26T04:51:10.360Z,59508.54
2022-08-26T04:52:13.338Z,59504.52
2022-08-26T04:53:16.521Z,59491.47
2022-08-26T04:54:20.322Z,59511.54
2022-08-26T04:55:25.206Z,59464.37
2022-08-26T04:56:28.325Z,59466.38
2022-08-26T04:57:31.408Z,59457.34
2022-08-26T04:58:34.681Z,59430.25
2022-08-26T04:59:39.418Z,59348.95
2022-08-26T05:00:42.279Z,59337.91
2022-08-26T05:01:45.364Z,59283.71
2022-08-26T05:02:49.456Z,59272.68
2022-08-26T05:03:53.894Z,59216.47
2022-08-26T05:04:56.946Z,59187.37
2022-08-26T05:05:59.737Z,59223.50
2022-08-26T05:07:03.177Z,59175.32
2022-08-26T05:08:06.086Z,59234.54
2022-08-26T05:09:09.059Z,59191.38
2022-08-26T05:10:11.953Z,59156.25
2022-08-26T05:11:14.705Z,59160.27
2022-08-26T05:12:17.686Z,59202.42
2022-08-26T05:13:22.098Z,59132.17
2022-08-26T05:14:25.888Z,59159.27
2022-08-26T05:15:29.179Z,59168.30
2022-08-26T05:16:32.049Z,59137.19
2022-08-26T05:17:34.921Z,59115.11
2022-08-26T05:18:38.616Z,59131.16
2022-08-26T05:19:42.911Z,59158.26
2022-08-26T05:20:45.922Z,59176.33
2022-08-26T05:21:49.805Z,59187.37
2022-08-26T05:22:52.879Z,59191.38
2022-08-26T05:23:56.371Z,59179.34
2022-08-26T05:24:59.143Z,59262.64
2022-08-26T05:26:01.813Z,59247.58
2022-08-26T05:27:07.490Z,59255.61
2022-08-26T05:28:10.733Z,59237.55
2022-08-26T05:29:13.504Z,59225.50
2022-08-26T05:30:16.281Z,59228.52
2022-08-26T05:31:19.013Z,59237.55
2022-08-26T05:32:22.032Z,59257.62
2022-08-26T05:33:24.700Z,59308.80
2022-08-26T05:34:30.292Z,59268.66
2022-08-26T05:35:32.806Z,59297.77
2022-08-26T05:36:36.427Z,59339.92
2022-08-26T05:37:40.307Z,59303.79
2022-08-26T05:38:43.990Z,59325.87
2022-08-26T05:39:51.282Z,59316.84
2022-08-26T05:40:52.946Z,59313.82
2022-08-26T05:41:56.005Z,59323.86
2022-08-26T05:42:59.286Z,59325.87
2022-08-26T05:44:02.670Z,59225.50
2022-08-26T05:45:05.640Z,59279.70
2022-08-26T05:46:10.112Z,59235.54
2022-08-26T05:47:13.243Z,59202.42
2022-08-26T05:48:17.128Z,59231.53
2022-08-26T05:49:26.169Z,59234.54
2022-08-26T05:50:25.648Z,59225.50
2022-08-26T05:51:30.417Z,59223.50
2022-08-26T05:52:33.647Z,59219.48
2022-08-26T05:53:36.824Z,59201.42
2022-08-26T05:54:41.338Z,59196.40
2022-08-26T05:55:44.827Z,59185.36
2022-08-26T05:56:48.780Z,59207.44
2022-08-26T05:57:52.646Z,59136.18
2022-08-26T05:58:56.221Z,59077.98
2022-08-26T06:00:00.958Z,59036.83
2022-08-26T06:01:11.867Z,58989.66
2022-08-26T06:02:16.742Z,58906.37
2022-08-26T06:03:19.797Z,58861.21
2022-08-26T06:04:24.719Z,58816.05
2022-08-26T06:05:38.303Z,58746.81
2022-08-26T06:06:43.283Z,58670.54
2022-08-26T06:07:57.840Z,58633.41
2022-08-26T06:09:01.125Z,58557.15
2022-08-26T06:10:31.178Z,58561.17
2022-08-26T06:12:32.062Z,58346.43
2022-08-26T06:14:57.867Z,58125.70
2022-08-26T06:16:03.269Z,58010.31
2022-08-26T06:17:07.821Z,57842.77
2022-08-26T06:18:14.260Z,57718.36
2022-08-26T06:19:17.567Z,57604.00
2022-08-26T06:20:21.270Z,57425.43
2022-08-26T06:21:25.561Z,57323.11
2022-08-26T06:22:29.270Z,57168.63
2022-08-26T06:23:32.578Z,57052.27
2022-08-26T06:24:35.626Z,56954.97
2022-08-26T06:25:39.946Z,56799.51
2022-08-26T06:26:42.977Z,56735.32
2022-08-26T06:27:47.330Z,56587.88
2022-08-26T06:28:50.412Z,56465.52
2022-08-26T06:29:53.368Z,56230.84
2022-08-26T06:31:01.776Z,55904.93
2022-08-26T06:32:04.882Z,55749.50
2022-08-26T06:33:08.134Z,55072.71
2022-08-26T06:34:11.104Z,55034.62
2022-08-26T06:35:14.736Z,54994.52
2022-08-26T06:36:18.597Z,54970.45
2022-08-26T06:37:21.486Z,54914.31
2022-08-26T06:38:24.783Z,54903.29
2022-08-26T06:39:28.277Z,54862.18
2022-08-26T06:40:32.850Z,54855.16
2022-08-26T06:41:42.781Z,54874.21
2022-08-26T06:42:42.925Z,54840.13
2022-08-26T06:43:46.311Z,54842.13
2022-08-26T06:44:49.184Z,54829.10
2022-08-26T06:45:53.112Z,54871.20
2022-08-26T06:46:56.366Z,54827.09
2022-08-26T06:48:05.939Z,54857.17
2022-08-26T06:49:09.687Z,54833.11
2022-08-26T06:50:14.325Z,54837.12
2022-08-26T06:51:17.585Z,54828.09
2022-08-26T06:52:24.506Z,54812.05
2022-08-26T06:53:25.699Z,54794.01
2022-08-26T06:54:28.993Z,54794.01
2022-08-26T06:55:32.188Z,54793.01
2022-08-26T06:56:38.638Z,54768.95
2022-08-26T06:57:43.653Z,54783.98
2022-08-26T06:58:46.942Z,54723.84
2022-08-26T06:59:51.444Z,54757.92
2022-08-26T07:00:54.323Z,54701.78
2022-08-26T07:01:57.465Z,54700.78
2022-08-26T07:03:01.147Z,54701.78
2022-08-26T07:04:10.345Z,54697.77
2022-08-26T07:05:23.758Z,54698.78
2022-08-26T07:06:28.167Z,54672.71
2022-08-26T07:07:31.349Z,54673.71
2022-08-26T07:08:34.517Z,54622.59
2022-08-26T07:09:37.589Z,54627.60
2022-08-26T07:10:40.585Z,54616.57
2022-08-26T07:11:43.744Z,54607.55
2022-08-26T07:12:47.219Z,54599.53
2022-08-26T07:13:50.529Z,54610.56
2022-08-26T07:14:54.829Z,54579.48
2022-08-26T07:16:03.194Z,54570.46
2022-08-26T07:17:12.156Z,54569.46
2022-08-26T07:18:12.376Z,54581.49
2022-08-26T07:19:16.103Z,54582.49
2022-08-26T07:20:20.880Z,54603.54
2022-08-26T07:21:30.738Z,54563.45
2022-08-26T07:22:34.630Z,54566.45
2022-08-26T07:23:40.679Z,54600.54
2022-08-26T07:24:44.781Z,54590.51
2022-08-26T07:25:48.374Z,54576.47
2022-08-26T07:26:52.054Z,54627.60
2022-08-26T07:27:55.242Z,54579.48
2022-08-26T07:29:04.925Z,54577.48
2022-08-26T07:30:07.957Z,54550.41
2022-08-26T07:32:31.831Z,54599.53
2022-08-26T07:33:35.102Z,54603.54
2022-08-26T07:34:38.392Z,54603.54
2022-08-26T07:35:43.410Z,54581.49
2022-08-26T07:36:46.289Z,54619.58
2022-08-26T07:37:52.832Z,54619.58
2022-08-26T07:38:54.308Z,54609.55
2022-08-26T07:40:03.938Z,54620.58
2022-08-26T07:41:08.241Z,54609.55
2022-08-26T07:42:16.602Z,54630.61
2022-08-26T07:43:21.869Z,54626.60
2022-08-26T07:44:32.643Z,54633.61
2022-08-26T07:45:35.817Z,54597.53
2022-08-26T07:46:39.115Z,54635.62
2022-08-26T07:47:45.760Z,54607.55
2022-08-26T07:48:48.770Z,54644.64
2022-08-26T07:49:52.834Z,54628.60
2022-08-26T07:50:57.046Z,54646.64
2022-08-26T07:52:00.640Z,54607.55
2022-08-26T07:53:10.764Z,54653.66
2022-08-26T07:54:14.480Z,54613.57
2022-08-26T07:55:17.869Z,54629.61
2022-08-26T07:56:20.936Z,54626.60
2022-08-26T07:57:24.941Z,54595.52
2022-08-26T07:58:28.232Z,54553.42
2022-08-26T07:59:31.016Z,54581.49
2022-08-26T08:00:35.102Z,54591.51
2022-08-26T08:01:38.972Z,54600.54
2022-08-26T08:02:42.949Z,54597.53
2022-08-26T08:03:46.602Z,54576.47
2022-08-26T08:04:51.180Z,54576.47
2022-08-26T08:05:54.185Z,54526.36
2022-08-26T08:06:58.795Z,54579.48
2022-08-26T08:08:27.091Z,54556.43
2022-08-26T08:09:09.149Z,54499.29
2022-08-26T08:10:12.040Z,54517.33
2022-08-26T08:11:16.143Z,54504.30
2022-08-26T08:12:19.205Z,54511.32
2022-08-26T08:13:22.302Z,54511.32
2022-08-26T08:14:26.602Z,54489.27
2022-08-26T08:15:31.925Z,54460.20
2022-08-26T08:16:40.170Z,54469.21
2022-08-26T08:17:41.467Z,54448.16
2022-08-26T08:18:45.384Z,54461.20
2022-08-26T08:19:49.482Z,54422.10
2022-08-26T08:20:54.674Z,54461.20
2022-08-26T08:21:57.899Z,54440.14
2022-08-26T08:23:02.313Z,54453.18
2022-08-26T08:24:07.749Z,54437.14
2022-08-26T08:25:10.725Z,54438.14
2022-08-26T08:26:17.412Z,54411.07
2022-08-26T08:27:25.496Z,54397.04
2022-08-26T08:28:34.468Z,54419.09
2022-08-26T08:29:38.513Z,54409.07
2022-08-26T08:30:41.886Z,54422.10
2022-08-26T08:32:02.080Z,54415.09
2022-08-26T08:34:12.429Z,54388.02
2022-08-26T08:36:43.980Z,54385.02
2022-08-26T08:37:56.692Z,54411.07
2022-08-26T08:38:59.857Z,54399.05
2022-08-26T08:40:03.192Z,54404.06
2022-08-26T08:41:06.116Z,54383.01
2022-08-26T08:42:08.994Z,54387.02
2022-08-26T08:43:13.713Z,54375.99
2022-08-26T08:44:21.067Z,54354.94
2022-08-26T08:45:26.022Z,54372.98
2022-08-26T08:46:33.996Z,54410.07
2022-08-26T08:47:36.543Z,54409.07
2022-08-26T08:48:42.452Z,54391.03
2022-08-26T08:49:45.314Z,54379.00
2022-08-26T08:50:48.101Z,54360.96
2022-08-26T08:51:50.509Z,54390.03
2022-08-26T08:52:56.038Z,54387.02
2022-08-26T08:53:58.300Z,54402.05
2022-08-26T08:55:00.665Z,54378.00
2022-08-26T08:56:02.968Z,54366.97
2022-08-26T08:57:05.322Z,54399.05
2022-08-26T08:59:27.919Z,54366.97
2022-08-26T09:00:31.393Z,54371.98
2022-08-26T09:01:35.310Z,54351.93
2022-08-26T09:02:37.542Z,54380.00
2022-08-26T09:03:42.548Z,54378.00
2022-08-26T09:04:45.067Z,54324.87
2022-08-26T09:05:48.928Z,54361.96
2022-08-26T09:06:51.237Z,54358.95
2022-08-26T09:07:53.681Z,54356.95
2022-08-26T09:08:57.342Z,54386.02
2022-08-26T09:10:01.135Z,54372.98
2022-08-26T09:11:04.034Z,54372.98
2022-08-26T09:12:06.441Z,54366.97
2022-08-26T09:13:13.686Z,54373.99
2022-08-26T09:14:14.230Z,54371.98
2022-08-26T09:15:16.762Z,54393.03
2022-08-26T09:16:20.863Z,54367.97
2022-08-26T09:17:23.348Z,54378.00
2022-08-26T09:18:26.630Z,54338.91
2022-08-26T09:19:31.130Z,54399.05
2022-08-26T09:20:36.691Z,54372.98
2022-08-26T09:21:39.385Z,54373.99
2022-08-26T09:22:41.679Z,54413.08
2022-08-26T09:25:07.839Z,54424.11
2022-08-26T09:26:11.787Z,54400.05
2022-08-26T09:27:14.074Z,54372.98
2022-08-26T09:28:16.342Z,54394.04
2022-08-26T09:30:23.992Z,54426.11
2022-08-26T09:31:27.406Z,54409.07
2022-08-26T09:32:30.049Z,54412.08
2022-08-26T09:33:32.372Z,54401.05
2022-08-26T09:34:34.880Z,54431.12
2022-08-26T09:35:38.204Z,54431.12
2022-08-26T09:36:46.298Z,54447.16
2022-08-26T09:37:53.642Z,54417.09
2022-08-26T09:39:01.126Z,54435.13
2022-08-26T09:40:20.953Z,54468.21
2022-08-26T09:41:24.143Z,54418.09
2022-08-26T09:42:26.410Z,54481.25
2022-08-26T09:43:46.463Z,54434.13
2022-08-26T09:44:58.691Z,54428.12
2022-08-26T09:46:04.886Z,54429.12
2022-08-26T09:48:29.281Z,54432.13
2022-08-26T09:51:02.878Z,54425.11
2022-08-26T09:52:05.228Z,54473.23
2022-08-26T09:53:10.007Z,54446.16
2022-08-26T09:55:37.058Z,54411.07
2022-08-26T09:59:31.550Z,54427.11
2022-08-26T10:02:03.887Z,54422.10
2022-08-26T10:04:31.941Z,54438.14
2022-08-26T10:05:47.129Z,54442.15
2022-08-26T10:06:49.406Z,54419.09
2022-08-26T10:08:09.352Z,54399.05
2022-08-26T10:09:14.634Z,54399.05
2022-08-26T10:10:28.788Z,54400.05
2022-08-26T10:12:54.327Z,54405.06
2022-08-26T10:14:05.768Z,54395.04
2022-08-26T10:15:11.801Z,54395.04
2022-08-26T10:16:16.678Z,54386.02
2022-08-26T10:18:45.617Z,54381.00
2022-08-26T10:19:57.162Z,54350.93
2022-08-26T10:20:52.166Z,54366.97
2022-08-26T10:23:31.312Z,54327.88
2022-08-26T10:24:34.820Z,54372.98
2022-08-26T10:25:40.937Z,54326.87
2022-08-26T10:26:43.685Z,54300.81
2022-08-26T10:27:53.420Z,54324.87
2022-08-26T10:30:15.328Z,54351.93
2022-08-26T10:32:42.185Z,54289.79
2022-08-26T10:33:56.706Z,54306.83
2022-08-26T10:35:15.689Z,54286.78
2022-08-26T10:37:43.881Z,54291.79
2022-08-26T10:38:52.257Z,54242.68
2022-08-26T10:41:23.602Z,54196.57
2022-08-26T10:42:28.793Z,54192.56
2022-08-26T10:43:34.288Z,54198.57
2022-08-26T10:44:39.931Z,54157.48
2022-08-26T10:45:44.190Z,54177.52
2022-08-26T10:46:46.579Z,54189.55
2022-08-26T10:49:12.728Z,54157.48
2022-08-26T10:50:27.378Z,54140.44
2022-08-26T10:51:45.628Z,54126.41
2022-08-26T10:52:59.554Z,54086.31
2022-08-26T10:54:09.473Z,54074.29
2022-08-26T10:55:14.754Z,54078.29
2022-08-26T10:56:19.079Z,54088.32
2022-08-26T10:58:42.487Z,54084.31
2022-08-26T10:59:49.700Z,54050.23
2022-08-26T11:00:53.734Z,54044.21
2022-08-26T11:01:56.082Z,54075.29
2022-08-26T11:03:05.972Z,54042.21
2022-08-26T11:04:13.121Z,54052.23
2022-08-26T11:05:18.582Z,54031.19
2022-08-26T11:06:21.790Z,54050.23
2022-08-26T11:07:24.119Z,54030.18
2022-08-26T11:09:47.592Z,54036.20
2022-08-26T11:10:51.481Z,54013.14
2022-08-26T11:11:55.817Z,54026.18
2022-08-26T11:13:04.450Z,54002.12
2022-08-26T11:15:37.829Z,53993.10
2022-08-26T11:16:48.581Z,54010.14
2022-08-26T11:18:00.505Z,53956.02
2022-08-26T11:19:03.592Z,53990.09
2022-08-26T11:20:13.379Z,53975.06
2022-08-26T11:21:11.669Z,53948.00
2022-08-26T11:24:59.152Z,53991.09
2022-08-26T11:30:06.984Z,53951.00
2022-08-26T11:31:10.757Z,53958.02
2022-08-26T11:32:16.545Z,53907.91
2022-08-26T11:34:42.448Z,53928.95
2022-08-26T11:35:46.357Z,53937.97
2022-08-26T11:36:58.404Z,53924.95
2022-08-26T11:38:00.910Z,53950.00
2022-08-26T11:39:10.323Z,53921.94
2022-08-26T11:40:22.043Z,53909.91
2022-08-26T11:41:26.166Z,53917.93
2022-08-26T11:42:28.498Z,53905.90
2022-08-26T11:43:32.701Z,53923.94
2022-08-26T11:44:36.247Z,53942.98
2022-08-26T11:45:38.873Z,53891.87
2022-08-26T11:46:41.464Z,53900.89
2022-08-26T11:47:44.018Z,53910.91
2022-08-26T11:48:48.366Z,53912.92
2022-08-26T11:49:58.880Z,53879.84
2022-08-26T11:51:05.746Z,53923.94
2022-08-26T11:52:08.331Z,53881.85
2022-08-26T11:53:17.001Z,53870.82
2022-08-26T11:54:30.712Z,53897.88
2022-08-26T11:55:25.224Z,53869.82
2022-08-26T11:56:35.028Z,53866.81
2022-08-26T11:57:39.290Z,53859.80
2022-08-26T11:58:41.518Z,53838.75
2022-08-26T11:59:43.919Z,53799.66
2022-08-26T12:00:46.279Z,53845.77
2022-08-26T12:01:51.813Z,53841.75
2022-08-26T12:02:58.113Z,53824.72
2022-08-26T12:04:00.578Z,53812.69
2022-08-26T12:05:04.786Z,53811.69
2022-08-26T12:06:07.135Z,53814.70
2022-08-26T12:07:09.804Z,53825.72
2022-08-26T12:08:13.767Z,53806.68
2022-08-26T12:09:16.204Z,53796.65
2022-08-26T12:10:20.167Z,53810.68
2022-08-26T12:11:24.231Z,53802.67
2022-08-26T12:12:26.630Z,53748.55
2022-08-26T12:13:29.067Z,53778.61
2022-08-26T12:15:53.689Z,53816.70
2022-08-26T12:17:00.237Z,53764.58
2022-08-26T12:18:02.614Z,53769.59
2022-08-26T12:19:05.309Z,53724.50
2022-08-26T12:20:07.889Z,53752.55
2022-08-26T12:21:10.443Z,53727.50
2022-08-26T12:22:13.014Z,53724.50
2022-08-26T12:23:15.856Z,53705.45
2022-08-26T12:24:18.450Z,53756.57
2022-08-26T12:25:22.558Z,53752.55
2022-08-26T12:26:25.192Z,53728.50
2022-08-26T12:27:27.707Z,53738.52
2022-08-26T12:28:30.795Z,53684.41
2022-08-26T12:29:33.511Z,53700.44
2022-08-26T12:30:36.249Z,53725.50
2022-08-26T12:31:54.656Z,53713.47
2022-08-26T12:33:19.351Z,53741.53
2022-08-26T12:34:17.402Z,53697.43
2022-08-26T12:35:14.890Z,53677.39
2022-08-26T12:36:18.922Z,53671.37
2022-08-26T12:37:21.417Z,53688.41
2022-08-26T12:38:24.110Z,53727.50
2022-08-26T12:39:26.754Z,53693.43
2022-08-26T12:40:29.484Z,53689.41
2022-08-26T12:41:32.106Z,53675.39
2022-08-26T12:42:34.664Z,53689.41
2022-08-26T12:43:42.332Z,53699.44
2022-08-26T12:44:53.400Z,53669.37
2022-08-26T12:45:50.418Z,53714.47
2022-08-26T12:48:13.521Z,53686.41
2022-08-26T12:49:19.369Z,53657.34
2022-08-26T12:50:22.098Z,53682.40
2022-08-26T12:51:24.585Z,53663.36
2022-08-26T12:52:27.110Z,53697.43
2022-08-26T12:53:33.856Z,53693.43
2022-08-26T12:56:02.779Z,53637.30
2022-08-26T12:57:10.914Z,53634.29
2022-08-26T12:58:13.478Z,53652.34
2022-08-26T12:59:16.488Z,53651.33
2022-08-26T13:00:28.432Z,53675.39
2022-08-26T13:01:28.973Z,53669.37
2022-08-26T13:02:38.740Z,53665.36
2022-08-26T13:03:41.017Z,53666.37
2022-08-26T13:04:48.653Z,53645.32
2022-08-26T13:05:50.930Z,53665.36
2022-08-26T13:06:59.594Z,53659.35
2022-08-26T13:08:03.649Z,53628.28
2022-08-26T13:09:06.007Z,53651.33
2022-08-26T13:10:08.331Z,53626.28
2022-08-26T13:11:10.593Z,53657.34
2022-08-26T13:12:16.979Z,53653.34
2022-08-26T13:13:22.494Z,53652.34
2022-08-26T13:14:31.310Z,53636.30
2022-08-26T13:15:45.686Z,53627.28
2022-08-26T13:16:50.947Z,53599.22
2022-08-26T13:17:53.619Z,53631.29
2022-08-26T13:18:57.561Z,53648.32
2022-08-26T13:21:21.732Z,53635.30
2022-08-26T13:22:24.338Z,53629.29
2022-08-26T13:23:26.933Z,53644.32
2022-08-26T13:24:29.468Z,53650.33